sensor_id;sensor_type;location;lat;lon;timestamp;pressure;altitude;pressure_sealevel;temperature;humidity
28181;BME280;15464;50.988;10.318;2023-04-06T00:00:13;99313.03;;;-1.54;72.69
28181;BME280;15464;50.988;10.318;2023-04-06T00:02:41;99317.38;;;-1.54;72.81
28181;BME280;15464;50.988;10.318;2023-04-06T00:05:07;99317.19;;;-1.48;72.39
28181;BME280;15464;50.988;10.318;2023-04-06T00:07:34;99319.91;;;-1.51;72.12
28181;BME280;15464;50.988;10.318;2023-04-06T00:10:02;99314.00;;;-1.56;72.68
28181;BME280;15464;50.988;10.318;2023-04-06T00:12:29;99314.06;;;-1.59;72.68
28181;BME280;15464;50.988;10.318;2023-04-06T00:14:56;99312.41;;;-1.62;72.74
28181;BME280;15464;50.988;10.318;2023-04-06T00:17:23;99310.25;;;-1.76;74.98
28181;BME280;15464;50.988;10.318;2023-04-06T00:19:49;99314.50;;;-1.75;74.22
28181;BME280;15464;50.988;10.318;2023-04-06T00:22:16;99316.34;;;-1.77;74.57
28181;BME280;15464;50.988;10.318;2023-04-06T00:24:43;99318.03;;;-1.76;72.60
28181;BME280;15464;50.988;10.318;2023-04-06T00:27:10;99303.38;;;-1.78;72.02
28181;BME280;15464;50.988;10.318;2023-04-06T00:29:36;99299.09;;;-1.81;72.72
28181;BME280;15464;50.988;10.318;2023-04-06T00:32:03;99301.00;;;-1.86;72.91
28181;BME280;15464;50.988;10.318;2023-04-06T00:34:30;99298.53;;;-1.90;74.18
28181;BME280;15464;50.988;10.318;2023-04-06T00:36:56;99305.63;;;-1.95;74.37
28181;BME280;15464;50.988;10.318;2023-04-06T00:39:23;99297.88;;;-1.97;74.90
28181;BME280;15464;50.988;10.318;2023-04-06T00:41:51;99294.44;;;-1.99;74.77
28181;BME280;15464;50.988;10.318;2023-04-06T00:44:19;99298.97;;;-2.06;74.19
28181;BME280;15464;50.988;10.318;2023-04-06T00:46:46;99304.16;;;-2.06;74.05
28181;BME280;15464;50.988;10.318;2023-04-06T00:49:13;99299.94;;;-2.08;73.81
28181;BME280;15464;50.988;10.318;2023-04-06T00:51:40;99300.00;;;-2.11;74.09
28181;BME280;15464;50.988;10.318;2023-04-06T00:54:07;99298.28;;;-2.12;73.75
28181;BME280;15464;50.988;10.318;2023-04-06T00:56:33;99295.78;;;-2.15;73.23
28181;BME280;15464;50.988;10.318;2023-04-06T00:59:00;99298.47;;;-2.18;72.81
28181;BME280;15464;50.988;10.318;2023-04-06T01:01:28;99292.53;;;-2.22;72.88
28181;BME280;15464;50.988;10.318;2023-04-06T01:03:55;99294.25;;;-2.22;72.33
28181;BME280;15464;50.988;10.318;2023-04-06T01:06:22;99302.19;;;-2.27;71.95
28181;BME280;15464;50.988;10.318;2023-04-06T01:08:49;99293.63;;;-2.30;73.10
28181;BME280;15464;50.988;10.318;2023-04-06T01:11:17;99291.03;;;-2.30;72.84
28181;BME280;15464;50.988;10.318;2023-04-06T01:13:43;99283.22;;;-2.30;72.98
28181;BME280;15464;50.988;10.318;2023-04-06T01:16:10;99286.78;;;-2.33;73.43
28181;BME280;15464;50.988;10.318;2023-04-06T01:18:37;99290.31;;;-2.35;73.62
28181;BME280;15464;50.988;10.318;2023-04-06T01:21:04;99287.81;;;-2.38;74.73
28181;BME280;15464;50.988;10.318;2023-04-06T01:23:31;99286.94;;;-2.39;75.10
28181;BME280;15464;50.988;10.318;2023-04-06T01:25:58;99288.69;;;-2.39;75.48
28181;BME280;15464;50.988;10.318;2023-04-06T01:28:24;99280.94;;;-2.41;76.09
28181;BME280;15464;50.988;10.318;2023-04-06T01:30:51;99278.38;;;-2.42;75.83
28181;BME280;15464;50.988;10.318;2023-04-06T01:33:18;99279.34;;;-2.45;75.61
28181;BME280;15464;50.988;10.318;2023-04-06T01:35:45;99279.50;;;-2.51;76.84
28181;BME280;15464;50.988;10.318;2023-04-06T01:38:11;99276.81;;;-2.48;77.00
28181;BME280;15464;50.988;10.318;2023-04-06T01:40:38;99270.72;;;-2.47;76.76
28181;BME280;15464;50.988;10.318;2023-04-06T01:43:05;99268.16;;;-2.49;76.13
28181;BME280;15464;50.988;10.318;2023-04-06T01:45:32;99270.75;;;-2.49;75.92
28181;BME280;15464;50.988;10.318;2023-04-06T01:47:59;99266.53;;;-2.51;76.48
28181;BME280;15464;50.988;10.318;2023-04-06T01:50:26;99262.25;;;-2.54;76.70
28181;BME280;15464;50.988;10.318;2023-04-06T01:52:53;99264.97;;;-2.58;77.34
28181;BME280;15464;50.988;10.318;2023-04-06T01:55:20;99257.25;;;-2.61;76.07
28181;BME280;15464;50.988;10.318;2023-04-06T01:57:46;99257.31;;;-2.63;76.69
28181;BME280;15464;50.988;10.318;2023-04-06T02:00:13;99256.56;;;-2.68;77.05
28181;BME280;15464;50.988;10.318;2023-04-06T02:02:40;99260.13;;;-2.70;75.80
28181;BME280;15464;50.988;10.318;2023-04-06T02:05:08;99256.69;;;-2.71;76.72
28181;BME280;15464;50.988;10.318;2023-04-06T02:07:35;99254.94;;;-2.70;76.51
28181;BME280;15464;50.988;10.318;2023-04-06T02:10:02;99254.97;;;-2.72;76.81
28181;BME280;15464;50.988;10.318;2023-04-06T02:12:28;99255.88;;;-2.74;75.88
28181;BME280;15464;50.988;10.318;2023-04-06T02:14:55;99249.78;;;-2.72;79.31
28181;BME280;15464;50.988;10.318;2023-04-06T02:17:22;99246.47;;;-2.77;77.37
28181;BME280;15464;50.988;10.318;2023-04-06T02:19:49;99247.47;;;-2.82;78.27
28181;BME280;15464;50.988;10.318;2023-04-06T02:22:16;99252.66;;;-2.82;78.64
28181;BME280;15464;50.988;10.318;2023-04-06T02:24:43;99250.97;;;-2.83;79.21
28181;BME280;15464;50.988;10.318;2023-04-06T02:27:09;99252.66;;;-2.82;78.04
28181;BME280;15464;50.988;10.318;2023-04-06T02:29:36;99253.59;;;-2.85;79.52
28181;BME280;15464;50.988;10.318;2023-04-06T02:32:03;99245.84;;;-2.87;79.17
28181;BME280;15464;50.988;10.318;2023-04-06T02:34:30;99255.47;;;-2.90;79.33
28181;BME280;15464;50.988;10.318;2023-04-06T02:36:57;99245.13;;;-2.93;79.72
28181;BME280;15464;50.988;10.318;2023-04-06T02:39:24;99248.75;;;-2.99;79.47
28181;BME280;15464;50.988;10.318;2023-04-06T02:41:50;99248.72;;;-2.97;79.18
28181;BME280;15464;50.988;10.318;2023-04-06T02:44:17;99254.00;;;-3.00;79.58
28181;BME280;15464;50.988;10.318;2023-04-06T02:46:44;99256.66;;;-3.03;78.59
28181;BME280;15464;50.988;10.318;2023-04-06T02:49:10;99252.38;;;-3.04;78.59
28181;BME280;15464;50.988;10.318;2023-04-06T02:51:37;99254.22;;;-3.09;79.27
28181;BME280;15464;50.988;10.318;2023-04-06T02:54:04;99256.84;;;-3.11;78.85
28181;BME280;15464;50.988;10.318;2023-04-06T02:56:30;99249.97;;;-3.12;78.27
28181;BME280;15464;50.988;10.318;2023-04-06T02:58:57;99248.22;;;-3.11;77.93
28181;BME280;15464;50.988;10.318;2023-04-06T03:01:26;99247.34;;;-3.10;77.94
28181;BME280;15464;50.988;10.318;2023-04-06T03:03:52;99255.97;;;-3.10;78.02
28181;BME280;15464;50.988;10.318;2023-04-06T03:06:19;99249.03;;;-3.09;78.33
28181;BME280;15464;50.988;10.318;2023-04-06T03:08:46;99250.78;;;-3.10;78.30
28181;BME280;15464;50.988;10.318;2023-04-06T03:11:13;99246.53;;;-3.12;78.55
28181;BME280;15464;50.988;10.318;2023-04-06T03:13:40;99246.59;;;-3.15;78.33
28181;BME280;15464;50.988;10.318;2023-04-06T03:16:07;99255.41;;;-3.21;79.72
28181;BME280;15464;50.988;10.318;2023-04-06T03:18:33;99252.91;;;-3.26;79.63
28181;BME280;15464;50.988;10.318;2023-04-06T03:21:00;99247.78;;;-3.29;78.92
28181;BME280;15464;50.988;10.318;2023-04-06T03:23:27;99248.66;;;-3.28;79.19
28181;BME280;15464;50.988;10.318;2023-04-06T03:25:54;99252.94;;;-3.27;79.50
28181;BME280;15464;50.988;10.318;2023-04-06T03:28:20;99253.94;;;-3.31;79.60
28181;BME280;15464;50.988;10.318;2023-04-06T03:30:47;99257.44;;;-3.34;79.59
28181;BME280;15464;50.988;10.318;2023-04-06T03:33:14;99254.84;;;-3.34;79.16
28181;BME280;15464;50.988;10.318;2023-04-06T03:35:41;99255.81;;;-3.38;79.01
28181;BME280;15464;50.988;10.318;2023-04-06T03:38:07;99261.88;;;-3.39;78.80
28181;BME280;15464;50.988;10.318;2023-04-06T03:40:34;99253.38;;;-3.44;80.34
28181;BME280;15464;50.988;10.318;2023-04-06T03:43:01;99256.94;;;-3.49;80.81
28181;BME280;15464;50.988;10.318;2023-04-06T03:45:28;99263.94;;;-3.51;80.45
28181;BME280;15464;50.988;10.318;2023-04-06T03:47:54;99252.72;;;-3.53;80.09
28181;BME280;15464;50.988;10.318;2023-04-06T03:50:21;99255.44;;;-3.58;80.09
28181;BME280;15464;50.988;10.318;2023-04-06T03:52:48;99258.03;;;-3.58;80.57
28181;BME280;15464;50.988;10.318;2023-04-06T03:55:15;99254.63;;;-3.61;81.73
28181;BME280;15464;50.988;10.318;2023-04-06T03:57:42;99248.66;;;-3.63;81.67
28181;BME280;15464;50.988;10.318;2023-04-06T04:00:09;99253.09;;;-3.69;82.53
28181;BME280;15464;50.988;10.318;2023-04-06T04:02:36;99253.09;;;-3.69;82.86
28181;BME280;15464;50.988;10.318;2023-04-06T04:05:03;99264.38;;;-3.71;82.94
28181;BME280;15464;50.988;10.318;2023-04-06T04:07:30;99271.28;;;-3.70;82.16
28181;BME280;15464;50.988;10.318;2023-04-06T04:09:57;99266.00;;;-3.67;81.98
28181;BME280;15464;50.988;10.318;2023-04-06T04:12:23;99274.66;;;-3.68;80.35
28181;BME280;15464;50.988;10.318;2023-04-06T04:14:50;99278.16;;;-3.69;79.71
28181;BME280;15464;50.988;10.318;2023-04-06T04:17:17;99282.44;;;-3.68;80.09
28181;BME280;15464;50.988;10.318;2023-04-06T04:19:44;99276.47;;;-3.70;81.56
28181;BME280;15464;50.988;10.318;2023-04-06T04:22:10;99279.97;;;-3.73;80.90
28181;BME280;15464;50.988;10.318;2023-04-06T04:24:37;99286.09;;;-3.77;82.68
28181;BME280;15464;50.988;10.318;2023-04-06T04:27:04;99288.81;;;-3.81;82.68
28181;BME280;15464;50.988;10.318;2023-04-06T04:29:31;99288.81;;;-3.81;81.93
28181;BME280;15464;50.988;10.318;2023-04-06T04:31:58;99292.28;;;-3.82;82.40
28181;BME280;15464;50.988;10.318;2023-04-06T04:34:24;99289.72;;;-3.84;81.51
28181;BME280;15464;50.988;10.318;2023-04-06T04:36:52;99295.81;;;-3.86;81.43
28181;BME280;15464;50.988;10.318;2023-04-06T04:39:19;99295.81;;;-3.86;80.86
28181;BME280;15464;50.988;10.318;2023-04-06T04:41:46;99291.56;;;-3.89;81.29
28181;BME280;15464;50.988;10.318;2023-04-06T04:44:12;99290.72;;;-3.89;81.29
28181;BME280;15464;50.988;10.318;2023-04-06T04:46:39;99299.38;;;-3.90;81.04
28181;BME280;15464;50.988;10.318;2023-04-06T04:49:07;99300.25;;;-3.91;82.26
28181;BME280;15464;50.988;10.318;2023-04-06T04:51:34;99300.25;;;-3.91;82.01
28181;BME280;15464;50.988;10.318;2023-04-06T04:54:02;99294.22;;;-3.93;82.47
28181;BME280;15464;50.988;10.318;2023-04-06T04:56:29;99292.56;;;-3.94;82.78
28181;BME280;15464;50.988;10.318;2023-04-06T04:58:56;99289.13;;;-3.96;82.43
28181;BME280;15464;50.988;10.318;2023-04-06T05:01:23;99298.59;;;-3.94;82.10
28181;BME280;15464;50.988;10.318;2023-04-06T05:03:50;99302.91;;;-3.94;82.24
28181;BME280;15464;50.988;10.318;2023-04-06T05:06:17;99299.41;;;-3.93;82.70
28181;BME280;15464;50.988;10.318;2023-04-06T05:08:45;99300.28;;;-3.93;83.33
28181;BME280;15464;50.988;10.318;2023-04-06T05:11:12;99302.84;;;-3.91;84.66
28181;BME280;15464;50.988;10.318;2023-04-06T05:13:38;99298.50;;;-3.91;83.97
28181;BME280;15464;50.988;10.318;2023-04-06T05:16:06;99302.78;;;-3.88;82.77
28181;BME280;15464;50.988;10.318;2023-04-06T05:18:33;99301.84;;;-3.86;83.17
28181;BME280;15464;50.988;10.318;2023-04-06T05:21:00;99301.94;;;-3.90;82.90
28181;BME280;15464;50.988;10.318;2023-04-06T05:23:27;99301.00;;;-3.86;82.82
28181;BME280;15464;50.988;10.318;2023-04-06T05:25:53;99301.84;;;-3.86;82.89
28181;BME280;15464;50.988;10.318;2023-04-06T05:28:20;99299.22;;;-3.84;82.57
28181;BME280;15464;50.988;10.318;2023-04-06T05:30:47;99300.09;;;-3.84;82.97
28181;BME280;15464;50.988;10.318;2023-04-06T05:33:14;99299.13;;;-3.80;83.60
28181;BME280;15464;50.988;10.318;2023-04-06T05:35:40;99301.63;;;-3.75;83.33
28181;BME280;15464;50.988;10.318;2023-04-06T05:38:08;99307.59;;;-3.72;83.45
28181;BME280;15464;50.988;10.318;2023-04-06T05:40:37;99300.56;;;-3.68;84.01
28181;BME280;15464;50.988;10.318;2023-04-06T05:43:04;99304.84;;;-3.66;84.08
28181;BME280;15464;50.988;10.318;2023-04-06T05:45:31;99295.31;;;-3.63;84.43
28181;BME280;15464;50.988;10.318;2023-04-06T05:47:58;99298.69;;;-3.60;83.71
28181;BME280;15464;50.988;10.318;2023-04-06T05:50:25;99302.09;;;-3.58;83.23
28181;BME280;15464;50.988;10.318;2023-04-06T05:52:51;99303.72;;;-3.54;83.04
28181;BME280;15464;50.988;10.318;2023-04-06T05:55:18;99292.44;;;-3.51;84.27
28181;BME280;15464;50.988;10.318;2023-04-06T05:57:45;99300.09;;;-3.47;84.77
28181;BME280;15464;50.988;10.318;2023-04-06T06:00:12;99293.06;;;-3.42;84.61
28181;BME280;15464;50.988;10.318;2023-04-06T06:02:39;99294.72;;;-3.38;85.06
28181;BME280;15464;50.988;10.318;2023-04-06T06:05:08;99294.56;;;-3.32;83.93
28181;BME280;15464;50.988;10.318;2023-04-06T06:07:36;99298.75;;;-3.26;85.02
28181;BME280;15464;50.988;10.318;2023-04-06T06:10:03;99287.41;;;-3.22;84.13
28181;BME280;15464;50.988;10.318;2023-04-06T06:12:30;99290.69;;;-3.15;84.78
28181;BME280;15464;50.988;10.318;2023-04-06T06:14:57;99292.25;;;-3.08;84.97
28181;BME280;15464;50.988;10.318;2023-04-06T06:17:23;99292.16;;;-3.05;85.64
28181;BME280;15464;50.988;10.318;2023-04-06T06:19:50;99285.16;;;-3.00;85.75
28181;BME280;15464;50.988;10.318;2023-04-06T06:22:17;99288.47;;;-2.95;85.29
28181;BME280;15464;50.988;10.318;2023-04-06T06:24:44;99284.81;;;-2.88;85.88
28181;BME280;15464;50.988;10.318;2023-04-06T06:27:10;99294.25;;;-2.86;84.86
28181;BME280;15464;50.988;10.318;2023-04-06T06:29:37;99291.31;;;-2.72;85.58
28181;BME280;15464;50.988;10.318;2023-04-06T06:32:04;99293.56;;;-2.60;85.09
28181;BME280;15464;50.988;10.318;2023-04-06T06:34:31;99292.53;;;-2.53;85.17
28181;BME280;15464;50.988;10.318;2023-04-06T06:36:58;99294.94;;;-2.47;84.75
28181;BME280;15464;50.988;10.318;2023-04-06T06:39:24;99291.28;;;-2.39;84.29
28181;BME280;15464;50.988;10.318;2023-04-06T06:41:51;99294.56;;;-2.33;84.13
28181;BME280;15464;50.988;10.318;2023-04-06T06:44:18;99289.16;;;-2.25;83.75
28181;BME280;15464;50.988;10.318;2023-04-06T06:46:45;99294.13;;;-2.18;84.21
28181;BME280;15464;50.988;10.318;2023-04-06T06:49:11;99284.22;;;-2.05;84.72
28181;BME280;15464;50.988;10.318;2023-04-06T06:51:38;99285.72;;;-1.96;84.57
28181;BME280;15464;50.988;10.318;2023-04-06T06:54:05;99286.28;;;-1.87;84.28
28181;BME280;15464;50.988;10.318;2023-04-06T06:56:33;99287.59;;;-1.72;84.14
28181;BME280;15464;50.988;10.318;2023-04-06T06:59:02;99290.78;;;-1.63;83.60
28181;BME280;15464;50.988;10.318;2023-04-06T07:01:29;99294.78;;;-1.52;84.14
28181;BME280;15464;50.988;10.318;2023-04-06T07:03:55;99282.28;;;-1.41;83.28
28181;BME280;15464;50.988;10.318;2023-04-06T07:06:22;99281.88;;;-1.29;83.49
28181;BME280;15464;50.988;10.318;2023-04-06T07:08:49;99281.91;;;-1.03;83.81
28181;BME280;15464;50.988;10.318;2023-04-06T07:11:16;99279.19;;;-0.75;84.00
28181;BME280;15464;50.988;10.318;2023-04-06T07:13:43;99277.16;;;-0.42;82.86
28181;BME280;15464;50.988;10.318;2023-04-06T07:16:09;99277.66;;;-0.08;83.64
28181;BME280;15464;50.988;10.318;2023-04-06T07:18:36;99267.78;;;0.24;82.46
28181;BME280;15464;50.988;10.318;2023-04-06T07:21:03;99269.13;;;0.56;79.86
28181;BME280;15464;50.988;10.318;2023-04-06T07:23:30;99265.06;;;0.91;78.29
28181;BME280;15464;50.988;10.318;2023-04-06T07:25:57;99262.81;;;1.24;77.90
28181;BME280;15464;50.988;10.318;2023-04-06T07:28:23;99258.69;;;1.58;78.92
28181;BME280;15464;50.988;10.318;2023-04-06T07:30:50;99252.66;;;1.95;78.06
28181;BME280;15464;50.988;10.318;2023-04-06T07:33:17;99272.16;;;2.26;76.55
28181;BME280;15464;50.988;10.318;2023-04-06T07:35:44;99259.81;;;2.65;75.79
28181;BME280;15464;50.988;10.318;2023-04-06T07:38:11;99258.91;;;2.83;73.16
28181;BME280;15464;50.988;10.318;2023-04-06T07:40:38;99251.94;;;3.18;72.93
28181;BME280;15464;50.988;10.318;2023-04-06T07:43:05;99253.00;;;3.49;71.19
28181;BME280;15464;50.988;10.318;2023-04-06T07:45:32;99249.03;;;3.75;66.37
28181;BME280;15464;50.988;10.318;2023-04-06T07:47:58;99247.34;;;3.89;65.44
28181;BME280;15464;50.988;10.318;2023-04-06T07:50:25;99240.09;;;4.10;64.83
28181;BME280;15464;50.988;10.318;2023-04-06T07:52:52;99239.41;;;4.38;64.08
28181;BME280;15464;50.988;10.318;2023-04-06T07:55:19;99242.97;;;4.53;65.77
28181;BME280;15464;50.988;10.318;2023-04-06T07:57:45;99244.56;;;4.71;62.63
28181;BME280;15464;50.988;10.318;2023-04-06T08:00:12;99234.41;;;4.95;60.63
28181;BME280;15464;50.988;10.318;2023-04-06T08:02:40;99241.34;;;5.11;61.62
28181;BME280;15464;50.988;10.318;2023-04-06T08:05:07;99237.06;;;5.39;61.60
28181;BME280;15464;50.988;10.318;2023-04-06T08:07:34;99229.50;;;5.62;61.54
28181;BME280;15464;50.988;10.318;2023-04-06T08:10:02;99232.22;;;5.61;60.14
28181;BME280;15464;50.988;10.318;2023-04-06T08:12:29;99231.19;;;5.78;57.98
28181;BME280;15464;50.988;10.318;2023-04-06T08:14:56;99228.41;;;5.81;57.30
28181;BME280;15464;50.988;10.318;2023-04-06T08:17:23;99221.13;;;5.84;58.10
28181;BME280;15464;50.988;10.318;2023-04-06T08:19:50;99229.25;;;5.95;58.48
28181;BME280;15464;50.988;10.318;2023-04-06T08:22:17;99229.72;;;6.02;58.84
28181;BME280;15464;50.988;10.318;2023-04-06T08:24:44;99229.34;;;5.94;56.86
28181;BME280;15464;50.988;10.318;2023-04-06T08:27:10;99224.66;;;5.99;57.49
28181;BME280;15464;50.988;10.318;2023-04-06T08:29:37;99223.69;;;6.00;55.42
28181;BME280;15464;50.988;10.318;2023-04-06T08:32:04;99228.59;;;5.92;55.72
28181;BME280;15464;50.988;10.318;2023-04-06T08:34:33;99225.38;;;5.87;56.09
28181;BME280;15464;50.988;10.318;2023-04-06T08:37:00;99227.94;;;5.88;55.87
28181;BME280;15464;50.988;10.318;2023-04-06T08:39:27;99224.28;;;6.05;53.92
28181;BME280;15464;50.988;10.318;2023-04-06T08:41:55;99221.50;;;6.06;54.47
28181;BME280;15464;50.988;10.318;2023-04-06T08:44:26;99221.41;;;6.22;52.16
28181;BME280;15464;50.988;10.318;2023-04-06T08:46:54;99229.94;;;6.26;53.20
28181;BME280;15464;50.988;10.318;2023-04-06T08:49:21;99221.31;;;6.24;53.80
28181;BME280;15464;50.988;10.318;2023-04-06T08:51:49;99213.81;;;6.18;50.60
28181;BME280;15464;50.988;10.318;2023-04-06T08:54:16;99218.22;;;6.17;47.86
28181;BME280;15464;50.988;10.318;2023-04-06T08:56:43;99216.91;;;6.24;50.79
28181;BME280;15464;50.988;10.318;2023-04-06T08:59:10;99215.72;;;6.42;49.81
28181;BME280;15464;50.988;10.318;2023-04-06T09:01:40;99216.47;;;6.98;45.88
28181;BME280;15464;50.988;10.318;2023-04-06T09:04:10;99220.56;;;7.02;47.39
28181;BME280;15464;50.988;10.318;2023-04-06T09:06:39;99208.22;;;7.03;47.46
28181;BME280;15464;50.988;10.318;2023-04-06T09:09:07;99208.78;;;7.20;45.93
28181;BME280;15464;50.988;10.318;2023-04-06T09:14:13;99207.09;;;7.19;46.90
28181;BME280;15464;50.988;10.318;2023-04-06T09:16:44;99212.72;;;7.27;41.36
28181;BME280;15464;50.988;10.318;2023-04-06T09:19:12;99215.16;;;7.31;45.49
28181;BME280;15464;50.988;10.318;2023-04-06T09:21:39;99213.16;;;7.47;44.84
28181;BME280;15464;50.988;10.318;2023-04-06T09:24:09;99205.97;;;7.74;43.99
28181;BME280;15464;50.988;10.318;2023-04-06T09:26:46;99206.16;;;7.84;40.77
28181;BME280;15464;50.988;10.318;2023-04-06T09:29:23;99207.63;;;7.75;43.60
28181;BME280;15464;50.988;10.318;2023-04-06T09:32:02;99206.50;;;7.54;43.87
28181;BME280;15464;50.988;10.318;2023-04-06T09:34:29;99201.94;;;7.56;45.46
28181;BME280;15464;50.988;10.318;2023-04-06T09:36:55;99190.31;;;7.96;42.22
28181;BME280;15464;50.988;10.318;2023-04-06T09:39:22;99187.28;;;8.14;42.44
28181;BME280;15464;50.988;10.318;2023-04-06T09:41:52;99184.34;;;8.18;45.34
28181;BME280;15464;50.988;10.318;2023-04-06T09:44:20;99183.09;;;8.11;43.83
28181;BME280;15464;50.988;10.318;2023-04-06T09:46:47;99186.28;;;8.03;42.71
28181;BME280;15464;50.988;10.318;2023-04-06T09:49:27;99191.75;;;8.00;41.34
28181;BME280;15464;50.988;10.318;2023-04-06T09:51:55;99187.28;;;8.14;42.86
28181;BME280;15464;50.988;10.318;2023-04-06T09:54:23;99182.63;;;8.30;40.23
28181;BME280;15464;50.988;10.318;2023-04-06T09:57:37;99175.84;;;8.38;41.78
28181;BME280;15464;50.988;10.318;2023-04-06T09:59:50;99179.81;;;8.44;41.20
28181;BME280;15464;50.988;10.318;2023-04-06T10:02:34;99173.44;;;8.59;40.79
28181;BME280;15464;50.988;10.318;2023-04-06T10:05:35;99173.44;;;8.59;41.62
28181;BME280;15464;50.988;10.318;2023-04-06T10:08:07;99179.38;;;8.50;42.12
28181;BME280;15464;50.988;10.318;2023-04-06T10:10:35;99175.34;;;8.57;41.10
28181;BME280;15464;50.988;10.318;2023-04-06T10:13:03;99163.75;;;8.47;39.61
28181;BME280;15464;50.988;10.318;2023-04-06T10:15:31;99163.53;;;8.50;41.23
28181;BME280;15464;50.988;10.318;2023-04-06T10:17:59;99161.94;;;8.71;40.73
28181;BME280;15464;50.988;10.318;2023-04-06T10:23:09;99158.13;;;9.10;38.89
28181;BME280;15464;50.988;10.318;2023-04-06T10:25:58;99158.00;;;9.12;38.44
28181;BME280;15464;50.988;10.318;2023-04-06T10:28:30;99150.19;;;9.21;40.75
28181;BME280;15464;50.988;10.318;2023-04-06T10:30:59;99150.41;;;9.18;41.00
28181;BME280;15464;50.988;10.318;2023-04-06T10:33:26;99150.66;;;9.15;40.19
28181;BME280;15464;50.988;10.318;2023-04-06T10:35:54;99152.16;;;9.30;41.35
28181;BME280;15464;50.988;10.318;2023-04-06T10:38:33;99149.88;;;9.48;42.01
28181;BME280;15464;50.988;10.318;2023-04-06T10:41:06;99151.69;;;9.59;42.06
28181;BME280;15464;50.988;10.318;2023-04-06T10:43:34;99148.94;;;9.60;40.99
28181;BME280;15464;50.988;10.318;2023-04-06T10:46:03;99146.97;;;9.51;41.69
28181;BME280;15464;50.988;10.318;2023-04-06T10:48:39;99139.28;;;9.82;42.36
28181;BME280;15464;50.988;10.318;2023-04-06T10:51:13;99146.75;;;9.99;41.42
28181;BME280;15464;50.988;10.318;2023-04-06T10:53:42;99144.84;;;9.79;40.28
28181;BME280;15464;50.988;10.318;2023-04-06T10:56:11;99140.25;;;9.69;40.54
28181;BME280;15464;50.988;10.318;2023-04-06T10:58:47;99136.28;;;9.64;41.22
28181;BME280;15464;50.988;10.318;2023-04-06T11:01:18;99135.91;;;9.68;40.97
28181;BME280;15464;50.988;10.318;2023-04-06T11:03:47;99125.06;;;9.83;40.10
28181;BME280;15464;50.988;10.318;2023-04-06T11:06:40;99128.09;;;9.78;41.80
28181;BME280;15464;50.988;10.318;2023-04-06T11:09:08;99127.06;;;10.12;39.80
28181;BME280;15464;50.988;10.318;2023-04-06T11:11:38;99125.25;;;10.35;37.86
28181;BME280;15464;50.988;10.318;2023-04-06T11:14:05;99123.31;;;10.37;38.24
28181;BME280;15464;50.988;10.318;2023-04-06T11:16:32;99115.78;;;10.10;40.28
28181;BME280;15464;50.988;10.318;2023-04-06T11:19:04;99121.41;;;10.28;39.74
28181;BME280;15464;50.988;10.318;2023-04-06T11:21:35;99123.31;;;10.37;40.52
28181;BME280;15464;50.988;10.318;2023-04-06T11:26:44;99111.66;;;10.61;39.12
28181;BME280;15464;50.988;10.318;2023-04-06T11:29:13;99106.25;;;10.83;37.67
28181;BME280;15464;50.988;10.318;2023-04-06T11:31:44;99096.34;;;11.06;40.46
28181;BME280;15464;50.988;10.318;2023-04-06T11:34:15;99090.13;;;10.96;38.13
28181;BME280;15464;50.988;10.318;2023-04-06T11:36:44;99095.47;;;11.47;40.78
28181;BME280;15464;50.988;10.318;2023-04-06T11:39:12;99082.63;;;11.52;38.63
28181;BME280;15464;50.988;10.318;2023-04-06T11:41:40;99091.72;;;11.59;39.58
28181;BME280;15464;50.988;10.318;2023-04-06T11:44:09;99082.69;;;11.71;39.63
28181;BME280;15464;50.988;10.318;2023-04-06T11:46:36;99081.91;;;11.50;39.01
28181;BME280;15464;50.988;10.318;2023-04-06T11:49:03;99080.81;;;11.22;39.96
28181;BME280;15464;50.988;10.318;2023-04-06T11:51:29;99082.69;;;11.71;39.37
28181;BME280;15464;50.988;10.318;2023-04-06T11:53:56;99071.31;;;11.90;38.78
28181;BME280;15464;50.988;10.318;2023-04-06T11:56:24;99070.25;;;12.11;36.90
28181;BME280;15464;50.988;10.318;2023-04-06T11:58:54;99070.53;;;12.57;36.42
28181;BME280;15464;50.988;10.318;2023-04-06T12:01:21;99071.50;;;12.75;38.45
28181;BME280;15464;50.988;10.318;2023-04-06T12:03:48;99065.78;;;12.60;37.83
28181;BME280;15464;50.988;10.318;2023-04-06T12:06:15;99060.31;;;12.71;37.18
28181;BME280;15464;50.988;10.318;2023-04-06T12:08:42;99057.94;;;12.78;37.59
28181;BME280;15464;50.988;10.318;2023-04-06T12:11:08;99056.44;;;13.31;37.41
28181;BME280;15464;50.988;10.318;2023-04-06T12:13:35;99055.03;;;13.64;38.56
28181;BME280;15464;50.988;10.318;2023-04-06T12:16:02;99043.69;;;13.62;36.72
28181;BME280;15464;50.988;10.318;2023-04-06T12:18:30;99043.47;;;14.01;36.27
28181;BME280;15464;50.988;10.318;2023-04-06T12:20:56;99040.31;;;14.50;36.42
28181;BME280;15464;50.988;10.318;2023-04-06T12:25:48;99042.16;;;15.11;37.16
28181;BME280;15464;50.988;10.318;2023-04-06T12:28:15;99033.28;;;15.11;34.49
28181;BME280;15464;50.988;10.318;2023-04-06T12:30:42;99046.88;;;14.74;34.60
28181;BME280;15464;50.988;10.318;2023-04-06T12:33:09;99034.91;;;14.60;35.58
28181;BME280;15464;50.988;10.318;2023-04-06T12:35:36;99039.22;;;14.08;30.93
28181;BME280;15464;50.988;10.318;2023-04-06T12:38:03;99025.69;;;14.55;34.76
28181;BME280;15464;50.988;10.318;2023-04-06T12:40:30;99022.25;;;15.40;32.73
28181;BME280;15464;50.988;10.318;2023-04-06T12:42:56;99034.25;;;16.11;34.05
28181;BME280;15464;50.988;10.318;2023-04-06T12:45:23;99020.88;;;16.11;34.44
28181;BME280;15464;50.988;10.318;2023-04-06T12:47:50;99022.88;;;16.09;33.80
28181;BME280;15464;50.988;10.318;2023-04-06T12:50:17;99021.19;;;15.58;33.12
28181;BME280;15464;50.988;10.318;2023-04-06T12:52:44;99014.78;;;15.93;35.02
28181;BME280;15464;50.988;10.318;2023-04-06T12:55:11;99023.94;;;16.57;34.17
28181;BME280;15464;50.988;10.318;2023-04-06T12:57:37;99034.09;;;16.21;32.01
28181;BME280;15464;50.988;10.318;2023-04-06T13:00:05;99018.59;;;16.49;31.31
28181;BME280;15464;50.988;10.318;2023-04-06T13:02:34;99016.19;;;16.13;31.91
28181;BME280;15464;50.988;10.318;2023-04-06T13:05:01;99030.66;;;15.87;32.08